createdAt,value
2022-08-21T00:00:19.193Z,100.00
2022-08-21T00:02:49.929Z,100.00
2022-08-21T00:05:18.134Z,100.00
2022-08-21T00:07:45.799Z,100.00
2022-08-21T00:10:14.126Z,100.00
2022-08-21T00:12:41.907Z,100.00
2022-08-21T00:15:11.888Z,100.00
2022-08-21T00:17:39.646Z,100.00
2022-08-21T00:20:09.874Z,100.00
2022-08-21T00:22:37.659Z,100.00
2022-08-21T00:25:07.084Z,100.00
2022-08-21T00:27:34.987Z,100.00
2022-08-21T00:30:04.420Z,100.00
2022-08-21T00:32:31.810Z,100.00
2022-08-21T00:34:59.196Z,100.00
2022-08-21T00:37:26.519Z,100.00
2022-08-21T00:39:54.368Z,100.00
2022-08-21T00:42:21.788Z,100.00
2022-08-21T00:44:51.439Z,100.00
2022-08-21T00:47:20.142Z,100.00
2022-08-21T00:49:47.801Z,100.00
2022-08-21T00:52:23.648Z,100.00
2022-08-21T00:54:53.413Z,100.00
2022-08-21T00:57:29.505Z,100.00
2022-08-21T01:00:01.626Z,100.00
2022-08-21T01:02:29.380Z,100.00
2022-08-21T01:04:58.647Z,100.00
2022-08-21T01:07:27.638Z,100.00
2022-08-21T01:09:55.205Z,100.00
2022-08-21T01:12:22.620Z,100.00
2022-08-21T01:14:50.313Z,100.00
2022-08-21T01:17:19.762Z,100.00
2022-08-21T01:19:47.013Z,100.00
2022-08-21T01:22:14.656Z,100.00
2022-08-21T01:24:42.147Z,100.00
2022-08-21T01:27:09.469Z,100.00
2022-08-21T01:30:20.802Z,100.00
2022-08-21T01:32:49.547Z,100.00
2022-08-21T01:35:18.347Z,100.00
2022-08-21T01:37:46.799Z,100.00
2022-08-21T01:40:17.682Z,100.00
2022-08-21T01:42:46.840Z,100.00
2022-08-21T01:45:17.192Z,100.00
2022-08-21T01:47:45.796Z,100.00
2022-08-21T01:50:16.474Z,100.00
2022-08-21T01:52:43.855Z,100.00
2022-08-21T01:55:13.653Z,100.00
2022-08-21T01:57:41.126Z,100.00
2022-08-21T02:00:12.158Z,100.00
2022-08-21T02:02:41.981Z,100.00
2022-08-21T02:05:11.409Z,100.00
2022-08-21T02:07:43.865Z,100.00
2022-08-21T02:10:13.646Z,100.00
2022-08-21T02:12:40.904Z,100.00
2022-08-21T02:15:10.474Z,100.00
2022-08-21T02:17:45.779Z,100.00
2022-08-21T02:20:18.879Z,100.00
2022-08-21T02:22:46.200Z,100.00
2022-08-21T02:25:13.804Z,100.00
2022-08-21T02:27:47.795Z,100.00
2022-08-21T02:30:19.554Z,100.00
2022-08-21T02:32:46.898Z,100.00
2022-08-21T02:35:14.841Z,100.00
2022-08-21T02:37:48.528Z,100.00
2022-08-21T02:40:18.458Z,100.00
2022-08-21T02:42:45.932Z,100.00
2022-08-21T02:45:14.574Z,100.00
2022-08-21T02:47:49.303Z,100.00
2022-08-21T02:50:21.549Z,100.00
2022-08-21T02:52:48.802Z,100.00
2022-08-21T02:55:19.644Z,100.00
2022-08-21T02:57:47.033Z,100.00
2022-08-21T03:00:14.755Z,100.00
2022-08-21T03:02:42.141Z,100.00
2022-08-21T03:05:11.870Z,100.00
2022-08-21T03:07:40.451Z,100.00
2022-08-21T03:10:08.964Z,100.00
2022-08-21T03:12:36.674Z,100.00
2022-08-21T03:15:12.862Z,100.00
2022-08-21T03:17:40.683Z,100.00
2022-08-21T03:20:09.723Z,100.00
2022-08-21T03:22:37.031Z,100.00
2022-08-21T03:25:05.333Z,100.00
2022-08-21T03:27:35.111Z,100.00
2022-08-21T03:30:05.470Z,100.00
2022-08-21T03:32:33.005Z,100.00
2022-08-21T03:35:01.330Z,100.00
2022-08-21T03:37:28.975Z,100.00
2022-08-21T03:39:56.429Z,100.00
2022-08-21T03:42:24.408Z,100.00
2022-08-21T03:44:52.186Z,100.00
2022-08-21T03:47:19.522Z,100.00
2022-08-21T03:49:46.732Z,100.00
2022-08-21T03:52:14.092Z,100.00
2022-08-21T03:54:42.381Z,100.00
2022-08-21T03:57:10.338Z,100.00
2022-08-21T03:59:38.784Z,100.00
2022-08-21T04:02:07.750Z,100.00
2022-08-21T04:04:35.551Z,100.00
2022-08-21T04:07:03.732Z,100.00
2022-08-21T04:09:31.439Z,100.00
2022-08-21T04:12:00.125Z,100.00
2022-08-21T04:14:27.540Z,100.00
2022-08-21T04:16:54.937Z,100.00
2022-08-21T04:19:22.248Z,100.00
2022-08-21T04:21:50.666Z,100.00
2022-08-21T04:24:20.413Z,100.00
2022-08-21T04:26:48.215Z,100.00
2022-08-21T04:29:15.537Z,100.00
2022-08-21T04:31:44.562Z,100.00
2022-08-21T04:34:11.831Z,100.00
2022-08-21T04:36:39.065Z,100.00
2022-08-21T04:39:06.551Z,100.00
2022-08-21T04:41:37.550Z,100.00
2022-08-21T04:44:05.497Z,100.00
2022-08-21T04:46:32.715Z,100.00
2022-08-21T04:49:00.360Z,100.00
2022-08-21T04:51:36.110Z,100.00
2022-08-21T04:54:15.611Z,100.00
2022-08-21T04:56:52.269Z,100.00
2022-08-21T04:59:24.493Z,100.00
2022-08-21T05:01:52.931Z,100.00
2022-08-21T05:04:25.061Z,100.00
2022-08-21T05:06:56.322Z,100.00
2022-08-21T05:09:24.888Z,100.00
2022-08-21T05:11:54.038Z,100.00
2022-08-21T05:14:21.424Z,100.00
2022-08-21T05:16:49.436Z,100.00
2022-08-21T05:19:16.776Z,100.00
2022-08-21T05:21:46.735Z,100.00
2022-08-21T05:24:14.009Z,100.00
2022-08-21T05:26:46.511Z,100.00
2022-08-21T05:29:16.386Z,100.00
2022-08-21T05:31:46.084Z,100.00
2022-08-21T05:34:17.030Z,100.00
2022-08-21T05:36:45.958Z,100.00
2022-08-21T05:39:13.465Z,100.00
2022-08-21T05:41:41.016Z,100.00
2022-08-21T05:44:10.060Z,100.00
2022-08-21T05:46:38.910Z,100.00
2022-08-21T05:49:06.237Z,100.00
2022-08-21T05:51:33.478Z,100.00
2022-08-21T05:54:00.767Z,100.00
2022-08-21T05:56:28.194Z,100.00
2022-08-21T05:58:56.587Z,100.00
2022-08-21T06:01:23.986Z,100.00
2022-08-21T06:03:51.363Z,100.00
2022-08-21T06:06:18.833Z,100.00
2022-08-21T06:08:47.033Z,100.00
2022-08-21T06:11:14.516Z,100.00
2022-08-21T06:13:42.652Z,100.00
2022-08-21T06:16:16.045Z,100.00
2022-08-21T06:18:45.066Z,100.00
2022-08-21T06:21:14.450Z,100.00
2022-08-21T06:23:42.791Z,100.00
2022-08-21T06:26:12.532Z,100.00
2022-08-21T06:28:40.325Z,100.00
2022-08-21T06:31:20.283Z,100.00
2022-08-21T06:33:48.479Z,100.00
2022-08-21T06:36:38.056Z,100.00
2022-08-21T06:39:16.530Z,100.00
2022-08-21T06:41:53.241Z,100.00
2022-08-21T06:44:25.406Z,100.00
2022-08-21T06:46:52.685Z,100.00
2022-08-21T06:49:21.584Z,100.00
2022-08-21T06:51:49.196Z,100.00
2022-08-21T06:54:16.509Z,100.00
2022-08-21T06:56:43.722Z,100.00
2022-08-21T06:59:11.066Z,100.00
2022-08-21T07:01:38.352Z,100.00
2022-08-21T07:04:05.976Z,100.00
2022-08-21T07:06:34.021Z,100.00
2022-08-21T07:09:03.408Z,100.00
2022-08-21T07:11:30.998Z,100.00
2022-08-21T07:14:04.391Z,100.00
2022-08-21T07:16:31.819Z,100.00
2022-08-21T07:18:59.085Z,100.00
2022-08-21T07:21:26.476Z,100.00
2022-08-21T07:23:55.653Z,100.00
2022-08-21T07:26:26.994Z,100.00
2022-08-21T07:28:54.748Z,100.00
2022-08-21T07:31:25.512Z,100.00
2022-08-21T07:33:53.187Z,100.00
2022-08-21T07:36:23.295Z,100.00
2022-08-21T07:38:52.468Z,100.00
2022-08-21T07:41:25.450Z,100.00
2022-08-21T07:43:53.681Z,100.00
2022-08-21T07:46:24.538Z,100.00
2022-08-21T07:48:53.770Z,100.00
2022-08-21T07:51:25.496Z,100.00
2022-08-21T07:53:54.789Z,100.00
2022-08-21T07:56:23.365Z,100.00
2022-08-21T07:58:50.955Z,100.00
2022-08-21T08:01:19.218Z,100.00
2022-08-21T08:03:46.826Z,100.00
2022-08-21T08:06:14.262Z,100.00
2022-08-21T08:08:43.037Z,100.00
2022-08-21T08:11:12.122Z,100.00
2022-08-21T08:13:42.083Z,100.00
2022-08-21T08:16:09.509Z,100.00
2022-08-21T08:18:36.875Z,100.00
2022-08-21T08:21:06.451Z,100.00
2022-08-21T08:23:34.584Z,100.00
2022-08-21T08:26:03.787Z,100.00
2022-08-21T08:28:32.872Z,100.00
2022-08-21T08:31:01.568Z,100.00
2022-08-21T08:33:29.004Z,100.00
2022-08-21T08:35:56.494Z,100.00
2022-08-21T08:38:26.060Z,100.00
2022-08-21T08:41:19.863Z,100.00
2022-08-21T08:43:55.406Z,100.00
2022-08-21T08:46:37.907Z,100.00
2022-08-21T08:49:14.744Z,100.00
2022-08-21T08:52:01.128Z,100.00
2022-08-21T08:54:46.034Z,100.00
2022-08-21T08:57:19.586Z,100.00
2022-08-21T08:59:51.722Z,100.00
2022-08-21T09:02:24.109Z,100.00
2022-08-21T09:04:53.623Z,100.00
2022-08-21T09:07:40.167Z,100.00
2022-08-21T09:10:19.710Z,100.00
2022-08-21T09:12:56.309Z,100.00
2022-08-21T09:15:26.812Z,100.00
2022-08-21T09:17:54.058Z,100.00
2022-08-21T09:20:30.569Z,100.00
2022-08-21T09:23:13.435Z,100.00
2022-08-21T09:25:57.307Z,100.00
2022-08-21T09:28:24.614Z,100.00
2022-08-21T09:30:56.745Z,100.00
2022-08-21T09:33:25.186Z,100.00
2022-08-21T09:35:58.812Z,100.00
2022-08-21T09:38:30.967Z,100.00
2022-08-21T09:41:05.594Z,100.00
2022-08-21T09:43:33.805Z,100.00
2022-08-21T09:46:24.114Z,100.00
2022-08-21T09:48:56.897Z,100.00
2022-08-21T09:51:33.473Z,100.00
2022-08-21T09:54:07.107Z,100.00
2022-08-21T09:57:00.640Z,100.00
2022-08-21T09:59:36.041Z,100.00
2022-08-21T10:02:27.256Z,100.00
2022-08-21T10:04:59.918Z,100.00
2022-08-21T10:07:30.700Z,92.65
2022-08-21T10:10:03.168Z,96.69
2022-08-21T10:12:49.844Z,99.16
2022-08-21T10:15:25.657Z,96.19
2022-08-21T10:18:21.772Z,95.52
2022-08-21T10:21:12.253Z,94.91
2022-08-21T10:23:53.809Z,92.03
2022-08-21T10:26:28.170Z,90.17
2022-08-21T10:29:04.957Z,89.18
2022-08-21T10:32:03.207Z,93.82
2022-08-21T10:34:48.638Z,93.87
2022-08-21T10:37:51.789Z,91.92
2022-08-21T10:40:50.321Z,94.89
2022-08-21T10:43:43.042Z,94.69
2022-08-21T10:46:22.596Z,93.40
2022-08-21T10:49:06.874Z,90.79
2022-08-21T10:51:53.580Z,90.48
2022-08-21T10:54:53.086Z,82.59
2022-08-21T10:57:34.932Z,87.00
2022-08-21T11:00:12.489Z,85.79
2022-08-21T11:02:52.577Z,89.33
2022-08-21T11:05:35.475Z,88.54
2022-08-21T11:08:22.850Z,86.38
2022-08-21T11:11:00.662Z,88.10
2022-08-21T11:13:50.452Z,86.35
2022-08-21T11:16:47.752Z,88.11
2022-08-21T11:19:24.079Z,89.10
2022-08-21T11:22:36.131Z,93.09
2022-08-21T11:25:22.933Z,93.98
2022-08-21T11:28:02.530Z,94.86
2022-08-21T11:31:11.081Z,90.94
2022-08-21T11:34:02.651Z,86.85
2022-08-21T11:36:29.942Z,90.17
2022-08-21T11:39:15.625Z,91.17
2022-08-21T11:41:55.833Z,90.08
2022-08-21T11:45:19.321Z,90.44
2022-08-21T11:48:07.747Z,87.91
2022-08-21T11:50:39.986Z,87.27
2022-08-21T11:53:14.778Z,89.46
2022-08-21T11:56:14.076Z,90.74
2022-08-21T11:58:48.807Z,92.56
2022-08-21T12:01:23.256Z,89.24
2022-08-21T12:04:05.478Z,88.15
2022-08-21T12:06:40.715Z,87.48
2022-08-21T12:09:30.720Z,87.72
2022-08-21T12:12:03.760Z,85.09
2022-08-21T12:14:48.634Z,88.62
2022-08-21T12:17:26.647Z,86.63
2022-08-21T12:20:17.969Z,87.58
2022-08-21T12:23:04.363Z,88.45
2022-08-21T12:25:41.923Z,87.44
2022-08-21T12:28:18.923Z,91.42
2022-08-21T12:30:49.786Z,89.47
2022-08-21T12:33:41.526Z,90.61
2022-08-21T12:36:22.547Z,92.88
2022-08-21T12:38:56.929Z,86.49
2022-08-21T12:41:33.416Z,89.02
2022-08-21T12:44:11.743Z,92.87
2022-08-21T12:46:52.051Z,84.17
2022-08-21T12:49:40.274Z,88.09
2022-08-21T12:52:33.600Z,84.58
2022-08-21T12:55:05.138Z,83.24
2022-08-21T12:57:33.736Z,85.90
2022-08-21T13:00:04.466Z,87.61
2022-08-21T13:02:41.005Z,88.61
2022-08-21T13:05:21.745Z,86.31
2022-08-21T13:07:50.219Z,86.35
2022-08-21T13:10:25.165Z,86.55
2022-08-21T13:12:58.262Z,85.86
2022-08-21T13:15:33.336Z,87.30
2022-08-21T13:18:05.289Z,85.97
2022-08-21T13:20:39.061Z,86.25
2022-08-21T13:23:29.160Z,87.63
2022-08-21T13:25:57.709Z,86.79
2022-08-21T13:28:34.176Z,88.56
2022-08-21T13:31:02.712Z,90.33
2022-08-21T13:33:37.579Z,89.34
2022-08-21T13:36:35.868Z,90.58
2022-08-21T13:39:06.022Z,86.85
2022-08-21T13:41:37.726Z,86.40
2022-08-21T13:44:41.217Z,85.37
2022-08-21T13:47:11.180Z,84.61
2022-08-21T13:49:42.779Z,84.39
2022-08-21T13:52:22.624Z,86.18
2022-08-21T13:55:02.478Z,84.77
2022-08-21T13:57:32.698Z,84.83
2022-08-21T14:00:31.246Z,84.94
2022-08-21T14:03:06.187Z,84.51
2022-08-21T14:05:38.483Z,83.43
2022-08-21T14:08:14.733Z,85.57
2022-08-21T14:10:57.500Z,84.95
2022-08-21T14:13:32.502Z,86.07
2022-08-21T14:16:15.279Z,87.44
2022-08-21T14:18:55.493Z,86.08
2022-08-21T14:21:34.530Z,86.05
2022-08-21T14:24:06.398Z,85.18
2022-08-21T14:26:37.621Z,85.72
2022-08-21T14:29:13.691Z,85.58
2022-08-21T14:31:44.186Z,85.19
2022-08-21T14:34:19.604Z,86.97
2022-08-21T14:36:51.162Z,85.49
2022-08-21T14:39:18.862Z,86.23
2022-08-21T14:41:49.063Z,84.97
2022-08-21T14:44:18.720Z,85.33
2022-08-21T14:46:56.471Z,83.00
2022-08-21T14:49:30.360Z,83.28
2022-08-21T14:51:59.243Z,84.73
2022-08-21T14:54:32.284Z,84.62
2022-08-21T14:57:11.588Z,85.34
2022-08-21T14:59:42.095Z,82.94
2022-08-21T15:02:11.001Z,82.57
2022-08-21T15:04:38.474Z,83.03
2022-08-21T15:07:06.372Z,85.52
2022-08-21T15:09:34.236Z,83.57
2022-08-21T15:12:04.051Z,84.08
2022-08-21T15:14:34.484Z,83.42
2022-08-21T15:17:01.904Z,82.60
2022-08-21T15:19:30.644Z,82.42
2022-08-21T15:21:58.757Z,81.64
2022-08-21T15:24:27.571Z,81.30
2022-08-21T15:26:57.116Z,81.67
2022-08-21T15:29:24.710Z,82.01
2022-08-21T15:32:02.935Z,82.25
2022-08-21T15:34:32.589Z,82.05
2022-08-21T15:37:01.341Z,84.23
2022-08-21T15:39:30.291Z,85.30
2022-08-21T15:42:00.078Z,85.53
2022-08-21T15:44:41.556Z,86.09
2022-08-21T15:47:16.519Z,84.09
2022-08-21T15:49:48.473Z,84.12
2022-08-21T15:52:18.597Z,84.85
2022-08-21T15:54:46.402Z,84.96
2022-08-21T15:57:17.569Z,87.21
2022-08-21T15:59:50.599Z,85.66
2022-08-21T16:02:27.663Z,85.75
2022-08-21T16:04:55.595Z,86.23
2022-08-21T16:07:22.889Z,86.42
2022-08-21T16:09:50.270Z,85.79
2022-08-21T16:12:25.573Z,87.41
2022-08-21T16:14:55.079Z,86.96
2022-08-21T16:17:28.378Z,86.94
2022-08-21T16:19:56.312Z,86.28
2022-08-21T16:22:23.730Z,86.60
2022-08-21T16:24:51.080Z,86.21
2022-08-21T16:27:19.467Z,87.00
2022-08-21T16:29:47.411Z,88.89
2022-08-21T16:32:15.441Z,89.52
2022-08-21T16:34:47.367Z,88.33
2022-08-21T16:37:24.076Z,89.16
2022-08-21T16:39:53.226Z,88.15
2022-08-21T16:42:24.392Z,89.53
2022-08-21T16:44:51.739Z,89.95
2022-08-21T16:47:26.351Z,89.81
2022-08-21T16:49:55.115Z,89.08
2022-08-21T16:52:22.378Z,89.98
2022-08-21T16:54:49.658Z,90.27
2022-08-21T16:57:17.109Z,89.90
2022-08-21T16:59:46.016Z,90.69
2022-08-21T17:02:29.485Z,89.91
2022-08-21T17:04:59.044Z,92.42
2022-08-21T17:07:30.273Z,92.87
2022-08-21T17:09:59.978Z,94.65
2022-08-21T17:12:27.454Z,92.41
2022-08-21T17:14:57.737Z,94.02
2022-08-21T17:17:25.632Z,94.25
2022-08-21T17:19:53.376Z,92.88
2022-08-21T17:22:21.825Z,94.28
2022-08-21T17:24:50.695Z,94.50
2022-08-21T17:27:26.818Z,95.12
2022-08-21T17:29:55.452Z,97.56
2022-08-21T17:32:24.309Z,97.77
2022-08-21T17:34:52.125Z,99.60
2022-08-21T17:37:26.258Z,100.00
2022-08-21T17:39:59.209Z,100.00
2022-08-21T17:42:29.798Z,99.21
2022-08-21T17:44:58.215Z,99.64
2022-08-21T17:47:26.472Z,100.00
2022-08-21T17:49:53.746Z,100.00
2022-08-21T17:52:21.271Z,100.00
2022-08-21T17:54:48.484Z,100.00
2022-08-21T17:57:22.785Z,100.00
2022-08-21T17:59:55.146Z,100.00
2022-08-21T18:02:26.962Z,100.00
2022-08-21T18:05:19.151Z,100.00
2022-08-21T18:07:47.156Z,100.00
2022-08-21T18:10:16.034Z,100.00
2022-08-21T18:12:48.737Z,100.00
2022-08-21T18:15:20.881Z,100.00
2022-08-21T18:17:52.261Z,100.00
2022-08-21T18:20:24.363Z,100.00
2022-08-21T18:22:53.525Z,100.00
2022-08-21T18:25:21.176Z,100.00
2022-08-21T18:27:52.706Z,100.00
2022-08-21T18:30:25.569Z,100.00
2022-08-21T18:32:54.869Z,100.00
2022-08-21T18:35:23.689Z,100.00
2022-08-21T18:37:54.804Z,100.00
2022-08-21T18:40:23.727Z,100.00
2022-08-21T18:42:55.872Z,100.00
2022-08-21T18:45:25.666Z,100.00
2022-08-21T18:47:58.299Z,100.00
2022-08-21T18:50:32.800Z,100.00
2022-08-21T18:53:08.261Z,100.00
2022-08-21T18:58:47.665Z,100.00
2022-08-21T19:01:15.122Z,100.00
2022-08-21T19:03:51.061Z,100.00
2022-08-21T19:06:20.543Z,100.00
2022-08-21T19:08:51.406Z,100.00
2022-08-21T19:11:23.478Z,100.00
2022-08-21T19:13:57.382Z,100.00
2022-08-21T19:16:25.024Z,100.00
2022-08-21T19:18:58.204Z,100.00
2022-08-21T19:21:28.473Z,100.00
2022-08-21T19:23:56.924Z,100.00
2022-08-21T19:26:29.235Z,100.00
2022-08-21T19:29:02.841Z,100.00
2022-08-21T19:31:34.028Z,100.00
2022-08-21T19:34:27.917Z,100.00
2022-08-21T19:36:59.349Z,100.00
2022-08-21T19:39:27.547Z,100.00
2022-08-21T19:41:59.716Z,100.00
2022-08-21T19:44:30.897Z,100.00
2022-08-21T19:47:05.569Z,100.00
2022-08-21T19:49:37.158Z,100.00
2022-08-21T19:52:13.051Z,100.00
2022-08-21T19:54:43.161Z,100.00
2022-08-21T19:57:13.274Z,100.00
2022-08-21T19:59:43.628Z,100.00
2022-08-21T20:02:14.574Z,100.00
2022-08-21T20:04:53.297Z,100.00
2022-08-21T20:07:26.670Z,100.00
2022-08-21T20:12:47.324Z,100.00
2022-08-21T20:15:22.038Z,100.00
2022-08-21T20:17:52.506Z,100.00
2022-08-21T20:20:22.289Z,100.00
2022-08-21T20:22:54.559Z,100.00
2022-08-21T20:25:26.538Z,100.00
2022-08-21T20:27:55.179Z,100.00
2022-08-21T20:30:22.842Z,100.00
2022-08-21T20:32:51.420Z,100.00
2022-08-21T20:35:20.402Z,100.00
2022-08-21T20:37:58.583Z,100.00
2022-08-21T20:43:16.165Z,100.00
2022-08-21T20:45:43.561Z,100.00
2022-08-21T20:48:28.456Z,100.00
2022-08-21T20:51:24.226Z,100.00
2022-08-21T20:54:32.132Z,100.00
2022-08-21T20:57:17.756Z,100.00
2022-08-21T21:00:08.097Z,100.00
2022-08-21T21:03:04.279Z,100.00
2022-08-21T21:05:41.777Z,100.00
2022-08-21T21:08:16.371Z,100.00
2022-08-21T21:11:02.812Z,100.00
2022-08-21T21:14:00.051Z,100.00
2022-08-21T21:16:30.343Z,100.00
2022-08-21T21:19:03.491Z,100.00
2022-08-21T21:21:54.170Z,100.00
2022-08-21T21:24:29.128Z,100.00
2022-08-21T21:27:11.856Z,100.00
2022-08-21T21:29:45.928Z,100.00
2022-08-21T21:32:17.958Z,100.00
2022-08-21T21:34:47.417Z,100.00
2022-08-21T21:37:59.568Z,100.00
2022-08-21T21:40:39.063Z,100.00
2022-08-21T21:43:43.576Z,100.00
2022-08-21T21:46:33.412Z,100.00
2022-08-21T21:49:20.910Z,100.00
2022-08-21T21:51:55.787Z,100.00
2022-08-21T21:54:43.358Z,100.00
2022-08-21T21:57:39.050Z,100.00
2022-08-21T22:00:19.512Z,100.00
2022-08-21T22:03:08.080Z,100.00
2022-08-21T22:05:56.384Z,100.00
2022-08-21T22:08:48.926Z,100.00
2022-08-21T22:12:10.992Z,100.00
2022-08-21T22:14:41.598Z,100.00
2022-08-21T22:17:41.334Z,100.00
2022-08-21T22:20:24.258Z,100.00
2022-08-21T22:22:55.953Z,100.00
2022-08-21T22:25:27.884Z,100.00
2022-08-21T22:28:06.941Z,100.00
2022-08-21T22:31:15.479Z,100.00
2022-08-21T22:34:14.244Z,100.00
2022-08-21T22:37:07.402Z,100.00
2022-08-21T22:39:44.009Z,100.00
2022-08-21T22:42:20.633Z,100.00
2022-08-21T22:44:57.221Z,100.00
2022-08-21T22:47:31.065Z,100.00
2022-08-21T22:50:03.965Z,100.00
2022-08-21T22:52:45.188Z,100.00
2022-08-21T22:55:18.300Z,100.00
2022-08-21T22:58:06.327Z,100.00
2022-08-21T23:00:49.665Z,100.00
2022-08-21T23:03:42.043Z,100.00
2022-08-21T23:06:40.651Z,100.00
2022-08-21T23:09:38.391Z,100.00
2022-08-21T23:12:24.054Z,100.00
2022-08-21T23:15:08.228Z,100.00
2022-08-21T23:17:53.948Z,100.00
2022-08-21T23:20:42.384Z,100.00
2022-08-21T23:23:34.967Z,100.00
2022-08-21T23:26:26.623Z,100.00
2022-08-21T23:29:32.148Z,100.00
2022-08-21T23:35:22.380Z,100.00
2022-08-21T23:37:52.460Z,100.00
2022-08-21T23:40:51.191Z,100.00
2022-08-21T23:43:42.088Z,100.00
2022-08-21T23:46:20.889Z,100.00
2022-08-21T23:49:22.156Z,100.00
2022-08-21T23:52:28.656Z,100.00
2022-08-21T23:55:32.104Z,100.00
2022-08-21T23:58:10.628Z,100.00
